sensor_id;sensor_type;location;lat;lon;timestamp;temperature;humidity
37646;DHT22;23489;49.600;6.138;2023-12-29T00:01:43;8.10;99.90
37646;DHT22;23489;49.600;6.138;2023-12-29T00:04:09;8.10;99.90
37646;DHT22;23489;49.600;6.138;2023-12-29T00:06:40;8.10;99.90
37646;DHT22;23489;49.600;6.138;2023-12-29T00:09:07;8.20;99.90
37646;DHT22;23489;49.600;6.138;2023-12-29T00:11:32;8.20;99.90
37646;DHT22;23489;49.600;6.138;2023-12-29T00:13:58;8.20;99.90
37646;DHT22;23489;49.600;6.138;2023-12-29T00:16:24;8.20;99.90
37646;DHT22;23489;49.600;6.138;2023-12-29T00:18:50;8.30;99.90
37646;DHT22;23489;49.600;6.138;2023-12-29T00:21:16;8.30;99.90
37646;DHT22;23489;49.600;6.138;2023-12-29T00:23:41;8.30;99.90
37646;DHT22;23489;49.600;6.138;2023-12-29T00:26:07;8.30;99.90
37646;DHT22;23489;49.600;6.138;2023-12-29T00:28:35;8.30;99.90
37646;DHT22;23489;49.600;6.138;2023-12-29T00:31:06;8.30;99.90
37646;DHT22;23489;49.600;6.138;2023-12-29T00:33:32;8.30;99.90
37646;DHT22;23489;49.600;6.138;2023-12-29T00:35:58;8.30;99.90
37646;DHT22;23489;49.600;6.138;2023-12-29T00:38:26;8.30;99.90
37646;DHT22;23489;49.600;6.138;2023-12-29T00:40:51;8.30;99.90
37646;DHT22;23489;49.600;6.138;2023-12-29T00:43:17;8.30;99.90
37646;DHT22;23489;49.600;6.138;2023-12-29T00:45:43;8.40;99.90
37646;DHT22;23489;49.600;6.138;2023-12-29T00:48:08;8.40;99.90
37646;DHT22;23489;49.600;6.138;2023-12-29T00:50:35;8.30;99.90
37646;DHT22;23489;49.600;6.138;2023-12-29T00:53:00;8.30;99.90
37646;DHT22;23489;49.600;6.138;2023-12-29T00:55:26;8.30;99.90
37646;DHT22;23489;49.600;6.138;2023-12-29T00:57:52;8.30;99.90
37646;DHT22;23489;49.600;6.138;2023-12-29T01:00:17;8.30;99.90
37646;DHT22;23489;49.600;6.138;2023-12-29T01:02:43;8.30;99.90
37646;DHT22;23489;49.600;6.138;2023-12-29T01:05:09;8.40;99.90
37646;DHT22;23489;49.600;6.138;2023-12-29T01:07:34;8.40;99.90
37646;DHT22;23489;49.600;6.138;2023-12-29T01:10:00;8.40;99.90
37646;DHT22;23489;49.600;6.138;2023-12-29T01:12:26;8.40;99.90
37646;DHT22;23489;49.600;6.138;2023-12-29T01:14:52;8.40;99.90
37646;DHT22;23489;49.600;6.138;2023-12-29T01:17:19;8.40;99.90
37646;DHT22;23489;49.600;6.138;2023-12-29T01:19:46;8.40;99.90
37646;DHT22;23489;49.600;6.138;2023-12-29T01:22:12;8.40;99.90
37646;DHT22;23489;49.600;6.138;2023-12-29T01:24:38;8.40;99.90
37646;DHT22;23489;49.600;6.138;2023-12-29T01:27:03;8.40;99.90
37646;DHT22;23489;49.600;6.138;2023-12-29T01:29:30;8.40;99.90
37646;DHT22;23489;49.600;6.138;2023-12-29T01:31:56;8.40;99.90
37646;DHT22;23489;49.600;6.138;2023-12-29T01:34:22;8.40;99.90
37646;DHT22;23489;49.600;6.138;2023-12-29T01:36:47;8.40;99.90
37646;DHT22;23489;49.600;6.138;2023-12-29T01:39:13;8.40;99.90
37646;DHT22;23489;49.600;6.138;2023-12-29T01:41:39;8.40;99.90
37646;DHT22;23489;49.600;6.138;2023-12-29T01:44:17;8.40;99.90
37646;DHT22;23489;49.600;6.138;2023-12-29T01:46:44;8.40;99.90
37646;DHT22;23489;49.600;6.138;2023-12-29T01:49:13;8.30;99.90
37646;DHT22;23489;49.600;6.138;2023-12-29T01:51:39;8.30;99.90
37646;DHT22;23489;49.600;6.138;2023-12-29T01:54:05;8.30;99.90
37646;DHT22;23489;49.600;6.138;2023-12-29T01:56:31;8.30;99.90
37646;DHT22;23489;49.600;6.138;2023-12-29T01:58:57;8.30;99.90
37646;DHT22;23489;49.600;6.138;2023-12-29T02:01:23;8.20;99.90
37646;DHT22;23489;49.600;6.138;2023-12-29T02:03:48;8.20;99.90
37646;DHT22;23489;49.600;6.138;2023-12-29T02:06:16;8.10;99.90
37646;DHT22;23489;49.600;6.138;2023-12-29T02:08:43;8.10;99.90
37646;DHT22;23489;49.600;6.138;2023-12-29T02:11:09;8.00;99.90
37646;DHT22;23489;49.600;6.138;2023-12-29T02:13:35;7.90;99.90
37646;DHT22;23489;49.600;6.138;2023-12-29T02:16:08;7.90;99.90
37646;DHT22;23489;49.600;6.138;2023-12-29T02:18:36;7.90;99.90
37646;DHT22;23489;49.600;6.138;2023-12-29T02:21:03;7.80;99.90
37646;DHT22;23489;49.600;6.138;2023-12-29T02:23:29;7.70;99.90
37646;DHT22;23489;49.600;6.138;2023-12-29T02:26:02;7.70;99.90
37646;DHT22;23489;49.600;6.138;2023-12-29T02:28:30;7.70;99.90
37646;DHT22;23489;49.600;6.138;2023-12-29T02:31:04;7.60;99.90
37646;DHT22;23489;49.600;6.138;2023-12-29T02:33:34;7.60;99.90
37646;DHT22;23489;49.600;6.138;2023-12-29T02:36:03;7.50;99.90
37646;DHT22;23489;49.600;6.138;2023-12-29T02:38:30;7.50;99.90
37646;DHT22;23489;49.600;6.138;2023-12-29T02:40:56;7.50;99.90
37646;DHT22;23489;49.600;6.138;2023-12-29T02:43:22;7.50;99.90
37646;DHT22;23489;49.600;6.138;2023-12-29T02:45:48;7.50;99.90
37646;DHT22;23489;49.600;6.138;2023-12-29T02:48:13;7.40;99.90
37646;DHT22;23489;49.600;6.138;2023-12-29T02:50:39;7.40;99.90
37646;DHT22;23489;49.600;6.138;2023-12-29T02:53:06;7.50;99.90
37646;DHT22;23489;49.600;6.138;2023-12-29T02:55:31;7.40;99.90
37646;DHT22;23489;49.600;6.138;2023-12-29T02:57:57;7.40;99.90
37646;DHT22;23489;49.600;6.138;2023-12-29T03:00:23;7.40;99.90
37646;DHT22;23489;49.600;6.138;2023-12-29T03:02:48;7.40;99.90
37646;DHT22;23489;49.600;6.138;2023-12-29T03:05:14;7.40;99.90
37646;DHT22;23489;49.600;6.138;2023-12-29T03:07:42;7.30;99.90
37646;DHT22;23489;49.600;6.138;2023-12-29T03:10:08;7.30;99.90
37646;DHT22;23489;49.600;6.138;2023-12-29T03:12:33;7.40;99.90
37646;DHT22;23489;49.600;6.138;2023-12-29T03:14:59;7.40;99.90
37646;DHT22;23489;49.600;6.138;2023-12-29T03:17:25;7.50;99.90
37646;DHT22;23489;49.600;6.138;2023-12-29T03:19:52;7.50;99.90
37646;DHT22;23489;49.600;6.138;2023-12-29T03:22:17;7.60;99.90
37646;DHT22;23489;49.600;6.138;2023-12-29T03:24:43;7.60;99.90
37646;DHT22;23489;49.600;6.138;2023-12-29T03:27:09;7.70;99.90
37646;DHT22;23489;49.600;6.138;2023-12-29T03:29:35;7.70;99.90
37646;DHT22;23489;49.600;6.138;2023-12-29T03:32:01;7.80;99.90
37646;DHT22;23489;49.600;6.138;2023-12-29T03:34:27;7.80;99.90
37646;DHT22;23489;49.600;6.138;2023-12-29T03:36:52;7.90;99.90
37646;DHT22;23489;49.600;6.138;2023-12-29T03:39:18;7.90;99.90
37646;DHT22;23489;49.600;6.138;2023-12-29T03:41:44;8.00;99.90
37646;DHT22;23489;49.600;6.138;2023-12-29T03:44:10;8.00;99.90
37646;DHT22;23489;49.600;6.138;2023-12-29T03:46:36;8.00;99.90
37646;DHT22;23489;49.600;6.138;2023-12-29T03:49:01;8.00;99.90
37646;DHT22;23489;49.600;6.138;2023-12-29T03:51:28;8.10;99.90
37646;DHT22;23489;49.600;6.138;2023-12-29T03:53:54;8.10;99.90
37646;DHT22;23489;49.600;6.138;2023-12-29T03:56:19;8.10;99.90
37646;DHT22;23489;49.600;6.138;2023-12-29T03:58:46;8.20;99.90
37646;DHT22;23489;49.600;6.138;2023-12-29T04:01:16;8.20;99.90
37646;DHT22;23489;49.600;6.138;2023-12-29T04:03:42;8.20;99.90
37646;DHT22;23489;49.600;6.138;2023-12-29T04:06:08;8.30;99.90
37646;DHT22;23489;49.600;6.138;2023-12-29T04:08:34;8.30;99.90
37646;DHT22;23489;49.600;6.138;2023-12-29T04:11:00;8.30;99.90
37646;DHT22;23489;49.600;6.138;2023-12-29T04:13:26;8.30;99.90
37646;DHT22;23489;49.600;6.138;2023-12-29T04:15:52;8.30;99.90
37646;DHT22;23489;49.600;6.138;2023-12-29T04:18:22;8.30;99.90
37646;DHT22;23489;49.600;6.138;2023-12-29T04:20:48;8.30;99.90
37646;DHT22;23489;49.600;6.138;2023-12-29T04:23:14;8.30;99.90
37646;DHT22;23489;49.600;6.138;2023-12-29T04:25:40;8.30;99.90
37646;DHT22;23489;49.600;6.138;2023-12-29T04:28:09;8.40;99.90
37646;DHT22;23489;49.600;6.138;2023-12-29T04:30:35;8.40;99.90
37646;DHT22;23489;49.600;6.138;2023-12-29T04:33:04;8.40;99.90
37646;DHT22;23489;49.600;6.138;2023-12-29T04:35:30;8.40;99.90
37646;DHT22;23489;49.600;6.138;2023-12-29T04:37:55;8.40;99.90
37646;DHT22;23489;49.600;6.138;2023-12-29T04:40:21;8.40;99.90
37646;DHT22;23489;49.600;6.138;2023-12-29T04:42:47;8.40;99.90
37646;DHT22;23489;49.600;6.138;2023-12-29T04:45:12;8.40;99.90
37646;DHT22;23489;49.600;6.138;2023-12-29T04:47:38;8.40;99.90
37646;DHT22;23489;49.600;6.138;2023-12-29T04:50:04;8.40;99.90
37646;DHT22;23489;49.600;6.138;2023-12-29T04:52:31;8.40;99.90
37646;DHT22;23489;49.600;6.138;2023-12-29T04:54:57;8.40;99.90
37646;DHT22;23489;49.600;6.138;2023-12-29T04:57:22;8.40;99.90
37646;DHT22;23489;49.600;6.138;2023-12-29T04:59:48;8.50;99.90
37646;DHT22;23489;49.600;6.138;2023-12-29T05:02:13;8.50;99.90
37646;DHT22;23489;49.600;6.138;2023-12-29T05:04:39;8.50;99.90
37646;DHT22;23489;49.600;6.138;2023-12-29T05:07:08;8.50;99.90
37646;DHT22;23489;49.600;6.138;2023-12-29T05:09:33;8.50;99.90
37646;DHT22;23489;49.600;6.138;2023-12-29T05:11:59;8.50;99.90
37646;DHT22;23489;49.600;6.138;2023-12-29T05:14:25;8.50;99.90
37646;DHT22;23489;49.600;6.138;2023-12-29T05:16:50;8.50;99.90
37646;DHT22;23489;49.600;6.138;2023-12-29T05:19:16;8.50;99.90
37646;DHT22;23489;49.600;6.138;2023-12-29T05:21:41;8.50;99.90
37646;DHT22;23489;49.600;6.138;2023-12-29T05:24:07;8.60;99.90
37646;DHT22;23489;49.600;6.138;2023-12-29T05:26:33;8.60;99.90
37646;DHT22;23489;49.600;6.138;2023-12-29T05:28:59;8.60;99.90
37646;DHT22;23489;49.600;6.138;2023-12-29T05:31:24;8.60;99.90
37646;DHT22;23489;49.600;6.138;2023-12-29T05:33:50;8.60;99.90
37646;DHT22;23489;49.600;6.138;2023-12-29T05:36:16;8.60;99.90
37646;DHT22;23489;49.600;6.138;2023-12-29T05:38:45;8.60;99.90
37646;DHT22;23489;49.600;6.138;2023-12-29T05:41:13;8.60;99.90
37646;DHT22;23489;49.600;6.138;2023-12-29T05:43:39;8.60;99.90
37646;DHT22;23489;49.600;6.138;2023-12-29T05:46:13;8.70;99.90
37646;DHT22;23489;49.600;6.138;2023-12-29T05:48:39;8.60;99.90
37646;DHT22;23489;49.600;6.138;2023-12-29T05:51:13;8.60;99.90
37646;DHT22;23489;49.600;6.138;2023-12-29T05:53:42;8.70;99.90
37646;DHT22;23489;49.600;6.138;2023-12-29T05:56:08;8.70;99.90
37646;DHT22;23489;49.600;6.138;2023-12-29T05:58:34;8.70;99.90
37646;DHT22;23489;49.600;6.138;2023-12-29T06:00:59;8.70;99.90
37646;DHT22;23489;49.600;6.138;2023-12-29T06:03:26;8.70;99.90
37646;DHT22;23489;49.600;6.138;2023-12-29T06:05:51;8.70;99.90
37646;DHT22;23489;49.600;6.138;2023-12-29T06:08:17;8.70;99.90
37646;DHT22;23489;49.600;6.138;2023-12-29T06:10:43;8.70;99.90
37646;DHT22;23489;49.600;6.138;2023-12-29T06:13:08;8.70;99.90
37646;DHT22;23489;49.600;6.138;2023-12-29T06:15:34;8.70;99.90
37646;DHT22;23489;49.600;6.138;2023-12-29T06:18:00;8.70;99.90
37646;DHT22;23489;49.600;6.138;2023-12-29T06:20:25;8.70;99.90
37646;DHT22;23489;49.600;6.138;2023-12-29T06:22:51;8.70;99.90
37646;DHT22;23489;49.600;6.138;2023-12-29T06:25:17;8.70;99.90
37646;DHT22;23489;49.600;6.138;2023-12-29T06:27:42;8.70;99.90
37646;DHT22;23489;49.600;6.138;2023-12-29T06:30:08;8.70;99.90
37646;DHT22;23489;49.600;6.138;2023-12-29T06:32:34;8.70;99.90
37646;DHT22;23489;49.600;6.138;2023-12-29T06:34:59;8.70;99.90
37646;DHT22;23489;49.600;6.138;2023-12-29T06:37:25;8.70;99.90
37646;DHT22;23489;49.600;6.138;2023-12-29T06:39:51;8.70;99.90
37646;DHT22;23489;49.600;6.138;2023-12-29T06:42:16;8.60;99.90
37646;DHT22;23489;49.600;6.138;2023-12-29T06:44:42;8.60;99.90
37646;DHT22;23489;49.600;6.138;2023-12-29T06:47:07;8.60;99.90
37646;DHT22;23489;49.600;6.138;2023-12-29T06:49:36;8.60;99.90
37646;DHT22;23489;49.600;6.138;2023-12-29T06:52:01;8.60;99.90
37646;DHT22;23489;49.600;6.138;2023-12-29T06:54:27;8.60;99.90
37646;DHT22;23489;49.600;6.138;2023-12-29T06:56:53;8.60;99.90
37646;DHT22;23489;49.600;6.138;2023-12-29T06:59:18;8.70;99.90
37646;DHT22;23489;49.600;6.138;2023-12-29T07:01:48;8.60;99.90
37646;DHT22;23489;49.600;6.138;2023-12-29T07:04:13;8.60;99.90
37646;DHT22;23489;49.600;6.138;2023-12-29T07:06:41;8.60;99.90
37646;DHT22;23489;49.600;6.138;2023-12-29T07:09:07;8.60;99.90
37646;DHT22;23489;49.600;6.138;2023-12-29T07:11:33;8.60;99.90
37646;DHT22;23489;49.600;6.138;2023-12-29T07:13:59;8.70;99.90
37646;DHT22;23489;49.600;6.138;2023-12-29T07:16:24;8.70;99.90
37646;DHT22;23489;49.600;6.138;2023-12-29T07:18:50;8.70;99.90
37646;DHT22;23489;49.600;6.138;2023-12-29T07:21:17;8.70;99.90
37646;DHT22;23489;49.600;6.138;2023-12-29T07:23:43;8.70;99.90
37646;DHT22;23489;49.600;6.138;2023-12-29T07:26:09;8.60;99.90
37646;DHT22;23489;49.600;6.138;2023-12-29T07:28:35;8.70;99.90
37646;DHT22;23489;49.600;6.138;2023-12-29T07:31:01;8.60;99.90
37646;DHT22;23489;49.600;6.138;2023-12-29T07:33:27;8.70;99.90
37646;DHT22;23489;49.600;6.138;2023-12-29T07:35:53;8.70;99.90
37646;DHT22;23489;49.600;6.138;2023-12-29T07:38:18;8.70;99.90
37646;DHT22;23489;49.600;6.138;2023-12-29T07:40:44;8.70;99.90
37646;DHT22;23489;49.600;6.138;2023-12-29T07:43:10;8.70;99.90
37646;DHT22;23489;49.600;6.138;2023-12-29T07:45:36;8.70;99.90
37646;DHT22;23489;49.600;6.138;2023-12-29T07:48:03;8.70;99.90
37646;DHT22;23489;49.600;6.138;2023-12-29T07:50:29;8.70;99.90
37646;DHT22;23489;49.600;6.138;2023-12-29T07:52:55;8.60;99.90
37646;DHT22;23489;49.600;6.138;2023-12-29T07:55:21;8.60;99.90
37646;DHT22;23489;49.600;6.138;2023-12-29T07:57:46;8.60;99.90
37646;DHT22;23489;49.600;6.138;2023-12-29T08:00:16;8.60;99.90
37646;DHT22;23489;49.600;6.138;2023-12-29T08:02:41;8.60;99.90
37646;DHT22;23489;49.600;6.138;2023-12-29T08:05:07;8.60;99.90
37646;DHT22;23489;49.600;6.138;2023-12-29T08:07:37;8.50;99.90
37646;DHT22;23489;49.600;6.138;2023-12-29T08:10:04;8.60;99.90
37646;DHT22;23489;49.600;6.138;2023-12-29T08:12:29;8.50;99.90
37646;DHT22;23489;49.600;6.138;2023-12-29T08:14:55;8.50;99.90
37646;DHT22;23489;49.600;6.138;2023-12-29T08:17:21;8.50;99.90
37646;DHT22;23489;49.600;6.138;2023-12-29T08:19:47;8.50;99.90
37646;DHT22;23489;49.600;6.138;2023-12-29T08:22:13;8.40;99.90
37646;DHT22;23489;49.600;6.138;2023-12-29T08:24:40;8.40;99.90
37646;DHT22;23489;49.600;6.138;2023-12-29T08:27:06;8.40;99.90
37646;DHT22;23489;49.600;6.138;2023-12-29T08:29:32;8.40;99.90
37646;DHT22;23489;49.600;6.138;2023-12-29T08:31:58;8.30;99.90
37646;DHT22;23489;49.600;6.138;2023-12-29T08:34:23;8.30;99.90
37646;DHT22;23489;49.600;6.138;2023-12-29T08:36:49;8.30;99.90
37646;DHT22;23489;49.600;6.138;2023-12-29T08:39:15;8.30;99.90
37646;DHT22;23489;49.600;6.138;2023-12-29T08:41:40;8.30;99.90
37646;DHT22;23489;49.600;6.138;2023-12-29T08:44:06;8.40;99.90
37646;DHT22;23489;49.600;6.138;2023-12-29T08:46:31;8.30;99.90
37646;DHT22;23489;49.600;6.138;2023-12-29T08:48:58;8.40;99.90
37646;DHT22;23489;49.600;6.138;2023-12-29T08:51:23;8.40;99.90
37646;DHT22;23489;49.600;6.138;2023-12-29T08:53:49;8.40;99.90
37646;DHT22;23489;49.600;6.138;2023-12-29T08:56:14;8.40;99.90
37646;DHT22;23489;49.600;6.138;2023-12-29T08:58:40;8.50;99.90
37646;DHT22;23489;49.600;6.138;2023-12-29T09:01:06;8.50;99.90
37646;DHT22;23489;49.600;6.138;2023-12-29T09:03:32;8.50;99.90
37646;DHT22;23489;49.600;6.138;2023-12-29T09:05:58;8.50;99.90
37646;DHT22;23489;49.600;6.138;2023-12-29T09:08:24;8.50;99.90
37646;DHT22;23489;49.600;6.138;2023-12-29T09:10:50;8.60;99.90
37646;DHT22;23489;49.600;6.138;2023-12-29T09:13:15;8.60;99.90
37646;DHT22;23489;49.600;6.138;2023-12-29T09:15:41;8.50;99.90
37646;DHT22;23489;49.600;6.138;2023-12-29T09:18:06;8.60;99.90
37646;DHT22;23489;49.600;6.138;2023-12-29T09:20:32;8.60;99.90
37646;DHT22;23489;49.600;6.138;2023-12-29T09:22:58;8.60;99.90
37646;DHT22;23489;49.600;6.138;2023-12-29T09:25:23;8.60;99.90
37646;DHT22;23489;49.600;6.138;2023-12-29T09:27:49;8.60;99.90
37646;DHT22;23489;49.600;6.138;2023-12-29T09:30:17;8.60;99.90
37646;DHT22;23489;49.600;6.138;2023-12-29T09:32:43;8.70;99.90
37646;DHT22;23489;49.600;6.138;2023-12-29T09:35:08;8.70;99.90
37646;DHT22;23489;49.600;6.138;2023-12-29T09:37:34;8.60;99.90
37646;DHT22;23489;49.600;6.138;2023-12-29T09:40:00;8.60;99.90
37646;DHT22;23489;49.600;6.138;2023-12-29T09:42:25;8.60;99.90
37646;DHT22;23489;49.600;6.138;2023-12-29T09:44:53;8.60;99.90
37646;DHT22;23489;49.600;6.138;2023-12-29T09:47:20;8.60;99.90
37646;DHT22;23489;49.600;6.138;2023-12-29T09:49:48;8.60;99.90
37646;DHT22;23489;49.600;6.138;2023-12-29T09:52:13;8.50;99.90
37646;DHT22;23489;49.600;6.138;2023-12-29T09:54:41;8.50;99.90
37646;DHT22;23489;49.600;6.138;2023-12-29T09:57:06;8.50;99.90
37646;DHT22;23489;49.600;6.138;2023-12-29T09:59:34;8.50;99.90
37646;DHT22;23489;49.600;6.138;2023-12-29T10:02:03;8.50;99.90
37646;DHT22;23489;49.600;6.138;2023-12-29T10:04:29;8.60;99.90
37646;DHT22;23489;49.600;6.138;2023-12-29T10:06:54;8.60;99.90
37646;DHT22;23489;49.600;6.138;2023-12-29T10:09:22;8.60;99.90
37646;DHT22;23489;49.600;6.138;2023-12-29T10:11:48;8.60;99.90
37646;DHT22;23489;49.600;6.138;2023-12-29T10:14:20;8.70;99.90
37646;DHT22;23489;49.600;6.138;2023-12-29T10:16:50;8.70;99.90
37646;DHT22;23489;49.600;6.138;2023-12-29T10:19:24;8.70;99.90
37646;DHT22;23489;49.600;6.138;2023-12-29T10:22:11;8.70;99.90
37646;DHT22;23489;49.600;6.138;2023-12-29T10:24:40;8.80;99.90
37646;DHT22;23489;49.600;6.138;2023-12-29T10:27:07;8.80;99.90
37646;DHT22;23489;49.600;6.138;2023-12-29T10:29:33;8.80;99.90
37646;DHT22;23489;49.600;6.138;2023-12-29T10:31:59;8.90;99.90
37646;DHT22;23489;49.600;6.138;2023-12-29T10:34:25;8.90;99.90
37646;DHT22;23489;49.600;6.138;2023-12-29T10:36:57;8.90;99.90
37646;DHT22;23489;49.600;6.138;2023-12-29T10:39:23;8.90;99.90
37646;DHT22;23489;49.600;6.138;2023-12-29T10:41:49;8.90;99.90
37646;DHT22;23489;49.600;6.138;2023-12-29T10:44:15;8.90;99.90
37646;DHT22;23489;49.600;6.138;2023-12-29T10:46:41;8.90;99.90
37646;DHT22;23489;49.600;6.138;2023-12-29T10:49:10;9.00;99.90
37646;DHT22;23489;49.600;6.138;2023-12-29T10:51:36;9.10;99.90
37646;DHT22;23489;49.600;6.138;2023-12-29T10:54:05;9.20;99.90
37646;DHT22;23489;49.600;6.138;2023-12-29T10:56:31;9.20;99.90
37646;DHT22;23489;49.600;6.138;2023-12-29T10:59:00;9.20;99.90
37646;DHT22;23489;49.600;6.138;2023-12-29T11:01:26;9.10;99.90
37646;DHT22;23489;49.600;6.138;2023-12-29T11:03:58;9.10;99.90
37646;DHT22;23489;49.600;6.138;2023-12-29T11:06:26;9.00;99.90
37646;DHT22;23489;49.600;6.138;2023-12-29T11:08:51;8.90;99.90
37646;DHT22;23489;49.600;6.138;2023-12-29T11:11:17;8.90;99.90
37646;DHT22;23489;49.600;6.138;2023-12-29T11:13:43;8.90;99.90
37646;DHT22;23489;49.600;6.138;2023-12-29T11:16:10;8.90;99.90
37646;DHT22;23489;49.600;6.138;2023-12-29T11:18:35;8.90;99.90
37646;DHT22;23489;49.600;6.138;2023-12-29T11:21:01;9.10;99.90
37646;DHT22;23489;49.600;6.138;2023-12-29T11:23:28;9.20;99.90
37646;DHT22;23489;49.600;6.138;2023-12-29T11:25:53;9.20;99.90
37646;DHT22;23489;49.600;6.138;2023-12-29T11:28:19;9.20;99.90
37646;DHT22;23489;49.600;6.138;2023-12-29T11:30:45;9.20;99.90
37646;DHT22;23489;49.600;6.138;2023-12-29T11:35:41;9.10;99.90
37646;DHT22;23489;49.600;6.138;2023-12-29T11:40:36;9.00;99.90
37646;DHT22;23489;49.600;6.138;2023-12-29T11:43:07;9.00;99.90
37646;DHT22;23489;49.600;6.138;2023-12-29T11:45:33;8.90;99.90
37646;DHT22;23489;49.600;6.138;2023-12-29T11:48:02;9.00;99.90
37646;DHT22;23489;49.600;6.138;2023-12-29T11:50:32;9.00;99.90
37646;DHT22;23489;49.600;6.138;2023-12-29T11:52:58;9.10;99.90
37646;DHT22;23489;49.600;6.138;2023-12-29T11:55:28;9.20;99.90
37646;DHT22;23489;49.600;6.138;2023-12-29T11:57:53;9.30;99.90
37646;DHT22;23489;49.600;6.138;2023-12-29T12:00:19;9.30;99.90
37646;DHT22;23489;49.600;6.138;2023-12-29T12:02:44;9.40;99.90
37646;DHT22;23489;49.600;6.138;2023-12-29T12:05:10;9.50;99.90
37646;DHT22;23489;49.600;6.138;2023-12-29T12:12:47;9.70;99.90
37646;DHT22;23489;49.600;6.138;2023-12-29T12:17:58;9.80;99.90
37646;DHT22;23489;49.600;6.138;2023-12-29T12:20:24;9.80;99.90
37646;DHT22;23489;49.600;6.138;2023-12-29T12:22:56;9.80;99.90
37646;DHT22;23489;49.600;6.138;2023-12-29T12:25:24;9.90;99.90
37646;DHT22;23489;49.600;6.138;2023-12-29T12:27:50;9.90;99.90
37646;DHT22;23489;49.600;6.138;2023-12-29T12:30:19;9.90;99.90
37646;DHT22;23489;49.600;6.138;2023-12-29T12:32:47;9.90;99.90
37646;DHT22;23489;49.600;6.138;2023-12-29T12:35:22;10.00;99.90
37646;DHT22;23489;49.600;6.138;2023-12-29T12:37:47;10.00;99.90
37646;DHT22;23489;49.600;6.138;2023-12-29T12:40:28;9.90;99.90
37646;DHT22;23489;49.600;6.138;2023-12-29T12:42:54;9.90;99.90
37646;DHT22;23489;49.600;6.138;2023-12-29T12:45:20;9.90;99.90
37646;DHT22;23489;49.600;6.138;2023-12-29T12:47:51;9.80;99.90
37646;DHT22;23489;49.600;6.138;2023-12-29T12:50:18;9.70;99.90
37646;DHT22;23489;49.600;6.138;2023-12-29T12:52:43;9.70;99.90
37646;DHT22;23489;49.600;6.138;2023-12-29T12:55:09;9.60;99.90
37646;DHT22;23489;49.600;6.138;2023-12-29T12:57:35;9.50;99.90
37646;DHT22;23489;49.600;6.138;2023-12-29T13:00:02;9.50;99.90
37646;DHT22;23489;49.600;6.138;2023-12-29T13:02:28;9.50;99.90
37646;DHT22;23489;49.600;6.138;2023-12-29T13:04:55;9.50;99.90
37646;DHT22;23489;49.600;6.138;2023-12-29T13:07:20;9.40;99.90
37646;DHT22;23489;49.600;6.138;2023-12-29T13:09:47;9.40;99.90
37646;DHT22;23489;49.600;6.138;2023-12-29T13:12:15;9.40;99.90
37646;DHT22;23489;49.600;6.138;2023-12-29T13:14:45;9.30;99.90
37646;DHT22;23489;49.600;6.138;2023-12-29T13:17:13;9.30;99.90
37646;DHT22;23489;49.600;6.138;2023-12-29T13:19:40;9.30;99.90
37646;DHT22;23489;49.600;6.138;2023-12-29T13:22:07;9.40;99.90
37646;DHT22;23489;49.600;6.138;2023-12-29T13:24:33;9.30;99.90
37646;DHT22;23489;49.600;6.138;2023-12-29T13:27:05;9.30;99.90
37646;DHT22;23489;49.600;6.138;2023-12-29T13:29:31;9.30;99.90
37646;DHT22;23489;49.600;6.138;2023-12-29T13:32:01;9.30;99.90
37646;DHT22;23489;49.600;6.138;2023-12-29T13:34:36;9.30;99.90
37646;DHT22;23489;49.600;6.138;2023-12-29T13:37:19;9.30;99.90
37646;DHT22;23489;49.600;6.138;2023-12-29T13:42:15;9.30;99.90
37646;DHT22;23489;49.600;6.138;2023-12-29T13:44:42;9.30;99.90
37646;DHT22;23489;49.600;6.138;2023-12-29T13:47:08;9.30;99.90
37646;DHT22;23489;49.600;6.138;2023-12-29T13:49:34;9.30;99.90
37646;DHT22;23489;49.600;6.138;2023-12-29T13:52:04;9.30;99.90
37646;DHT22;23489;49.600;6.138;2023-12-29T13:54:30;9.30;99.90
37646;DHT22;23489;49.600;6.138;2023-12-29T13:57:05;9.20;99.90
37646;DHT22;23489;49.600;6.138;2023-12-29T13:59:31;9.10;99.90
37646;DHT22;23489;49.600;6.138;2023-12-29T14:01:58;9.10;99.90
37646;DHT22;23489;49.600;6.138;2023-12-29T14:04:24;9.00;99.90
37646;DHT22;23489;49.600;6.138;2023-12-29T14:06:50;9.00;99.90
37646;DHT22;23489;49.600;6.138;2023-12-29T14:09:17;9.00;99.90
37646;DHT22;23489;49.600;6.138;2023-12-29T14:11:46;8.90;99.90
37646;DHT22;23489;49.600;6.138;2023-12-29T14:14:12;8.90;99.90
37646;DHT22;23489;49.600;6.138;2023-12-29T14:16:38;8.90;99.90
37646;DHT22;23489;49.600;6.138;2023-12-29T14:19:04;8.90;99.90
37646;DHT22;23489;49.600;6.138;2023-12-29T14:21:31;8.90;99.90
37646;DHT22;23489;49.600;6.138;2023-12-29T14:26:32;9.00;99.90
37646;DHT22;23489;49.600;6.138;2023-12-29T14:29:04;9.00;99.90
37646;DHT22;23489;49.600;6.138;2023-12-29T14:31:31;9.00;99.90
37646;DHT22;23489;49.600;6.138;2023-12-29T14:33:57;9.00;99.90
37646;DHT22;23489;49.600;6.138;2023-12-29T14:36:22;9.00;99.90
37646;DHT22;23489;49.600;6.138;2023-12-29T14:38:48;9.00;99.90
37646;DHT22;23489;49.600;6.138;2023-12-29T14:41:13;9.00;99.90
37646;DHT22;23489;49.600;6.138;2023-12-29T14:43:39;9.00;99.90
37646;DHT22;23489;49.600;6.138;2023-12-29T14:46:04;9.00;99.90
37646;DHT22;23489;49.600;6.138;2023-12-29T14:48:30;9.00;99.90
37646;DHT22;23489;49.600;6.138;2023-12-29T14:50:56;9.00;99.90
37646;DHT22;23489;49.600;6.138;2023-12-29T14:53:22;9.00;99.90
37646;DHT22;23489;49.600;6.138;2023-12-29T14:55:48;9.00;99.90
37646;DHT22;23489;49.600;6.138;2023-12-29T14:58:14;9.00;99.90
37646;DHT22;23489;49.600;6.138;2023-12-29T15:00:39;9.00;99.90
37646;DHT22;23489;49.600;6.138;2023-12-29T15:03:07;8.90;99.90
37646;DHT22;23489;49.600;6.138;2023-12-29T15:05:32;9.00;99.90
37646;DHT22;23489;49.600;6.138;2023-12-29T15:07:58;8.90;99.90
37646;DHT22;23489;49.600;6.138;2023-12-29T15:10:23;8.90;99.90
37646;DHT22;23489;49.600;6.138;2023-12-29T15:12:49;8.90;99.90
37646;DHT22;23489;49.600;6.138;2023-12-29T15:15:14;8.80;99.90
37646;DHT22;23489;49.600;6.138;2023-12-29T15:17:40;8.80;99.90
37646;DHT22;23489;49.600;6.138;2023-12-29T15:20:06;8.80;99.90
37646;DHT22;23489;49.600;6.138;2023-12-29T15:22:32;8.80;99.90
37646;DHT22;23489;49.600;6.138;2023-12-29T15:24:57;8.80;99.90
37646;DHT22;23489;49.600;6.138;2023-12-29T15:27:23;8.70;99.90
37646;DHT22;23489;49.600;6.138;2023-12-29T15:29:48;8.70;99.90
37646;DHT22;23489;49.600;6.138;2023-12-29T15:32:14;8.70;99.90
37646;DHT22;23489;49.600;6.138;2023-12-29T15:34:39;8.70;99.90
37646;DHT22;23489;49.600;6.138;2023-12-29T15:37:05;8.70;99.90
37646;DHT22;23489;49.600;6.138;2023-12-29T15:39:31;8.70;99.90
37646;DHT22;23489;49.600;6.138;2023-12-29T15:41:56;8.60;99.90
37646;DHT22;23489;49.600;6.138;2023-12-29T15:44:22;8.60;99.90
37646;DHT22;23489;49.600;6.138;2023-12-29T15:46:48;8.60;99.90
37646;DHT22;23489;49.600;6.138;2023-12-29T15:49:13;8.60;99.90
37646;DHT22;23489;49.600;6.138;2023-12-29T15:51:39;8.60;99.90
37646;DHT22;23489;49.600;6.138;2023-12-29T15:54:06;8.60;99.90
37646;DHT22;23489;49.600;6.138;2023-12-29T15:56:31;8.60;99.90
37646;DHT22;23489;49.600;6.138;2023-12-29T15:58:57;8.50;99.90